Time;durP1;ratioP1;P1;durP2;ratioP2;P2;SDS_P1;SDS_P2;PMS_P1;PMS_P2;Temp;Humidity;BMP_temperature;BMP_pressure;BME280_temperature;BME280_humidity;BME280_pressure;Samples;Min_cycle;Max_cycle;Signal;HPM_P1;HPM_P2
2021/09/23 00:00:53;;;;;;;19.08;10.70;;;13.20;78.60;;;;;;4990940;28;20049;-92
2021/09/23 00:05:54;;;;;;;16.80;10.70;;;13.20;78.60;;;;;;5016102;28;20014;-90
2021/09/23 00:08:20;;;;;;;16.45;10.13;;;13.20;78.60;;;;;;5019094;28;20042;-94
2021/09/23 00:10:46;;;;;;;18.35;10.60;;;13.20;78.60;;;;;;5001940;28;20046;-94
2021/09/23 00:13:12;;;;;;;19.52;10.82;;;13.20;78.60;;;;;;4994474;28;20533;-93
2021/09/23 00:15:40;;;;;;;17.25;10.77;;;13.20;78.60;;;;;;4988641;28;20104;-94
2021/09/23 00:18:10;;;;;;;17.90;9.98;;;13.20;78.60;;;;;;5008242;28;20069;-94
2021/09/23 00:20:38;;;;;;;17.80;9.98;;;13.20;78.70;;;;;;4987773;28;20544;-93
2021/09/23 00:23:05;;;;;;;15.88;10.55;;;13.20;78.70;;;;;;4975914;28;20061;-93
2021/09/23 00:25:31;;;;;;;15.60;9.77;;;13.20;78.70;;;;;;4989382;28;20034;-91
2021/09/23 00:27:59;;;;;;;13.55;9.38;;;13.20;78.70;;;;;;4990687;28;20030;-92
2021/09/23 00:30:26;;;;;;;15.73;9.88;;;13.20;78.70;;;;;;4985720;28;20037;-91
2021/09/23 00:32:53;;;;;;;17.42;9.52;;;13.20;78.70;;;;;;4988240;28;20034;-90
2021/09/23 00:35:19;;;;;;;17.50;10.02;;;13.20;78.70;;;;;;4973715;28;20030;-90
2021/09/23 00:37:45;;;;;;;16.02;9.98;;;13.20;78.80;;;;;;4989873;28;20441;-93
2021/09/23 00:40:12;;;;;;;15.80;9.55;;;13.20;78.80;;;;;;4988694;28;20041;-91
2021/09/23 00:42:40;;;;;;;16.55;9.73;;;13.20;78.90;;;;;;4990378;28;20549;-90
2021/09/23 00:45:07;;;;;;;13.68;9.50;;;13.20;78.80;;;;;;4986323;28;20038;-92
2021/09/23 00:47:33;;;;;;;15.25;10.32;;;13.20;78.80;;;;;;4989527;28;20045;-92
2021/09/23 00:50:01;;;;;;;13.32;8.88;;;13.20;78.90;;;;;;4989253;28;20082;-91
2021/09/23 00:52:31;;;;;;;17.10;10.32;;;13.20;78.90;;;;;;4986000;28;20093;-90
2021/09/23 00:54:57;;;;;;;15.88;9.02;;;13.20;79.00;;;;;;5004589;28;20053;-87
2021/09/23 00:57:24;;;;;;;15.48;9.80;;;13.20;79.00;;;;;;5012361;28;20102;-87
2021/09/23 00:59:55;;;;;;;15.73;9.50;;;13.20;79.10;;;;;;4995176;28;20022;-87
2021/09/23 01:02:23;;;;;;;15.98;9.38;;;13.20;79.10;;;;;;4996127;28;20110;-91
2021/09/23 01:04:52;;;;;;;15.68;10.50;;;13.20;79.10;;;;;;4989097;28;20030;-92
2021/09/23 01:07:21;;;;;;;16.55;9.82;;;13.20;79.10;;;;;;4991028;28;20162;-93
2021/09/23 01:09:51;;;;;;;15.65;10.05;;;13.20;79.20;;;;;;5004974;28;20069;-92
2021/09/23 01:12:20;;;;;;;15.48;9.82;;;13.20;79.20;;;;;;4973018;28;20038;-92
2021/09/23 01:14:48;;;;;;;15.68;9.52;;;13.20;79.20;;;;;;4967795;28;20045;-90
2021/09/23 01:17:15;;;;;;;15.68;10.27;;;13.20;79.60;;;;;;5004311;28;20034;-92
2021/09/23 01:19:48;;;;;;;17.25;9.80;;;13.20;79.30;;;;;;4998042;28;20042;-91
2021/09/23 01:22:15;;;;;;;14.70;9.18;;;13.20;79.30;;;;;;4986890;28;20038;-94
2021/09/23 01:25:00;;;;;;;15.20;9.65;;;13.20;79.40;;;;;;4990260;28;20046;-91
2021/09/23 01:27:26;;;;;;;15.50;9.13;;;13.20;79.40;;;;;;5004673;28;20125;-95
2021/09/23 01:29:52;;;;;;;14.15;9.75;;;13.20;79.40;;;;;;4971699;28;20054;-94
2021/09/23 01:32:19;;;;;;;12.57;9.10;;;13.20;79.40;;;;;;4988674;28;20034;-92
2021/09/23 01:34:47;;;;;;;13.45;8.93;;;13.20;79.40;;;;;;4989292;28;20038;-91
2021/09/23 01:37:13;;;;;;;13.73;9.60;;;13.20;79.40;;;;;;4981424;28;20045;-93
2021/09/23 01:39:47;;;;;;;12.30;8.10;;;13.20;79.50;;;;;;4989877;28;20038;-92
2021/09/23 01:42:21;;;;;;;12.02;8.95;;;13.30;79.60;;;;;;4988305;28;20085;-90
2021/09/23 01:44:47;;;;;;;13.02;8.70;;;13.30;79.60;;;;;;4987313;28;20023;-91
2021/09/23 01:47:16;;;;;;;13.02;8.50;;;13.20;79.60;;;;;;4972845;28;20512;-91
2021/09/23 01:49:50;;;;;;;14.10;9.10;;;13.20;79.60;;;;;;4986699;28;20062;-90
2021/09/23 01:52:17;;;;;;;11.65;8.02;;;13.30;79.70;;;;;;5011186;28;20034;-88
2021/09/23 01:54:57;;;;;;;13.65;9.05;;;13.20;79.70;;;;;;5007443;28;20604;-90
2021/09/23 01:57:23;;;;;;;12.63;8.93;;;13.20;79.70;;;;;;4975326;28;20116;-91
2021/09/23 01:59:49;;;;;;;13.52;9.15;;;13.30;79.90;;;;;;4974124;28;20062;-93
2021/09/23 02:02:22;;;;;;;12.68;8.90;;;13.20;79.80;;;;;;4987505;28;20034;-92
2021/09/23 02:04:51;;;;;;;14.60;8.85;;;13.20;80.50;;;;;;4987273;28;20034;-92
2021/09/23 02:07:17;;;;;;;12.52;8.27;;;13.30;79.90;;;;;;5004678;28;20030;-90
2021/09/23 02:09:48;;;;;;;12.68;9.05;;;13.30;80.00;;;;;;4980313;28;21715;-92
2021/09/23 02:12:16;;;;;;;12.63;8.85;;;13.20;80.00;;;;;;4989800;28;20058;-92
2021/09/23 02:14:43;;;;;;;13.55;9.23;;;13.20;80.00;;;;;;4972518;28;20066;-92
2021/09/23 02:17:09;;;;;;;13.40;8.65;;;13.30;80.00;;;;;;4984727;28;20041;-90
2021/09/23 02:19:48;;;;;;;12.00;8.20;;;13.30;80.00;;;;;;4985506;28;20466;-94
2021/09/23 02:22:15;;;;;;;12.05;8.35;;;13.20;80.00;;;;;;4969183;28;20089;-93
2021/09/23 02:24:43;;;;;;;13.55;8.93;;;13.20;80.10;;;;;;4967268;28;20042;-91
2021/09/23 02:27:10;;;;;;;12.60;8.05;;;13.30;80.10;;;;;;4980342;28;20081;-92
2021/09/23 02:29:37;;;;;;;11.07;8.02;;;13.30;80.10;;;;;;4987312;28;20152;-89
2021/09/23 02:32:04;;;;;;;11.60;7.68;;;13.30;80.10;;;;;;4984050;28;20081;-94
2021/09/23 02:34:30;;;;;;;11.05;7.68;;;13.30;80.20;;;;;;4984831;28;20484;-93
2021/09/23 02:36:56;;;;;;;11.32;7.63;;;13.30;80.20;;;;;;4972974;28;20030;-90
2021/09/23 02:39:22;;;;;;;10.68;6.85;;;13.20;80.20;;;;;;4971626;28;20034;-92
2021/09/23 02:41:48;;;;;;;11.57;7.13;;;13.30;80.30;;;;;;4988118;28;20556;-94
2021/09/23 02:44:14;;;;;;;9.50;7.10;;;13.30;80.20;;;;;;4993921;28;20187;-94
2021/09/23 02:46:40;;;;;;;9.80;7.28;;;13.30;80.20;;;;;;4992649;28;20018;-93
2021/09/23 02:49:06;;;;;;;10.05;6.57;;;13.30;80.30;;;;;;4991370;28;20035;-94
2021/09/23 02:51:32;;;;;;;9.27;6.63;;;13.30;80.20;;;;;;4986862;28;20030;-94
2021/09/23 02:53:58;;;;;;;10.63;7.07;;;13.30;80.20;;;;;;4982731;28;20030;-94
2021/09/23 02:56:24;;;;;;;9.32;6.25;;;13.30;80.20;;;;;;4979387;28;20027;-94
2021/09/23 02:58:54;;;;;;;9.23;6.38;;;13.30;80.20;;;;;;4977053;28;20029;-96
2021/09/23 03:01:21;;;;;;;11.73;7.32;;;13.30;80.20;;;;;;4996876;28;20069;-95
2021/09/23 03:03:47;;;;;;;8.20;6.43;;;13.30;80.30;;;;;;4991502;28;20058;-95
2021/09/23 03:06:13;;;;;;;8.20;5.72;;;13.30;80.30;;;;;;4977459;28;20049;-94
2021/09/23 03:08:40;;;;;;;8.98;6.07;;;13.30;80.30;;;;;;4974191;28;20031;-96
2021/09/23 03:11:06;;;;;;;7.90;5.32;;;13.40;80.40;;;;;;4993047;28;20038;-95
2021/09/23 03:13:33;;;;;;;6.45;5.10;;;13.30;80.30;;;;;;4982305;28;20445;-95
2021/09/23 03:15:59;;;;;;;7.32;5.78;;;13.40;80.40;;;;;;4987436;28;20026;-94
2021/09/23 03:18:26;;;;;;;7.53;5.30;;;13.30;80.30;;;;;;4978241;28;20026;-90
2021/09/23 03:20:52;;;;;;;6.40;5.07;;;13.30;80.40;;;;;;4976653;28;20547;-91
2021/09/23 03:23:18;;;;;;;6.82;5.22;;;13.30;80.40;;;;;;4970050;28;20117;-90
2021/09/23 03:25:45;;;;;;;6.82;4.85;;;13.40;80.40;;;;;;4976828;28;20026;-93
2021/09/23 03:28:12;;;;;;;5.85;4.55;;;13.30;80.40;;;;;;4981721;28;20034;-93
2021/09/23 03:30:38;;;;;;;6.15;4.72;;;13.30;80.50;;;;;;4989506;28;20148;-92
2021/09/23 03:33:06;;;;;;;6.72;5.25;;;13.40;80.50;;;;;;4981130;28;20035;-95
2021/09/23 03:35:32;;;;;;;6.00;4.13;;;13.40;80.50;;;;;;4983011;28;20053;-92
2021/09/23 03:37:59;;;;;;;4.90;4.20;;;13.40;80.50;;;;;;5012833;28;20513;-90
2021/09/23 03:40:26;;;;;;;5.60;3.88;;;13.40;80.60;;;;;;4994586;28;20066;-89
2021/09/23 03:42:52;;;;;;;5.15;4.18;;;13.40;80.60;;;;;;4996287;28;20036;-89
2021/09/23 03:45:18;;;;;;;5.25;3.92;;;13.40;80.60;;;;;;4988575;28;20034;-88
2021/09/23 03:47:45;;;;;;;5.72;3.90;;;13.40;80.60;;;;;;4987129;28;20030;-88
2021/09/23 03:50:11;;;;;;;4.65;3.33;;;13.40;80.60;;;;;;4986217;28;20065;-89
2021/09/23 03:52:38;;;;;;;4.95;3.25;;;13.40;80.60;;;;;;4970322;28;20070;-89
2021/09/23 03:55:05;;;;;;;4.90;3.60;;;13.40;80.70;;;;;;4977511;28;20104;-88
2021/09/23 03:57:31;;;;;;;4.28;3.42;;;13.40;80.70;;;;;;4978137;28;20038;-87
2021/09/23 03:59:57;;;;;;;5.07;2.80;;;13.40;80.70;;;;;;4970630;28;20042;-88
2021/09/23 04:02:24;;;;;;;3.05;2.75;;;13.40;80.80;;;;;;4984886;28;20037;-89
2021/09/23 04:04:50;;;;;;;3.55;2.80;;;13.40;80.70;;;;;;4970063;28;20038;-88
2021/09/23 04:07:16;;;;;;;5.18;3.28;;;13.40;80.70;;;;;;4983190;28;20036;-85
2021/09/23 04:09:42;;;;;;;4.65;3.13;;;13.40;80.70;;;;;;4986063;28;20511;-85
2021/09/23 04:12:08;;;;;;;4.18;3.20;;;13.40;80.70;;;;;;4984534;28;20118;-87
2021/09/23 04:14:35;;;;;;;4.13;2.92;;;13.40;80.70;;;;;;4964092;28;20041;-86
2021/09/23 04:17:01;;;;;;;3.35;3.00;;;13.40;80.80;;;;;;4968665;28;20042;-87
2021/09/23 04:19:27;;;;;;;3.08;2.78;;;13.40;81.40;;;;;;4970218;28;20042;-90
2021/09/23 04:21:53;;;;;;;3.65;2.35;;;13.40;80.80;;;;;;4982133;28;20486;-85
2021/09/23 04:24:20;;;;;;;4.00;2.60;;;13.40;80.90;;;;;;4985885;28;20031;-88
2021/09/23 04:26:48;;;;;;;4.40;3.00;;;13.40;80.90;;;;;;4984659;28;20026;-87
2021/09/23 04:29:14;;;;;;;3.47;2.60;;;13.40;81.00;;;;;;4984679;28;20077;-87
2021/09/23 04:31:40;;;;;;;3.03;2.60;;;13.40;81.00;;;;;;4990547;28;20069;-88
2021/09/23 04:34:06;;;;;;;4.00;2.83;;;13.50;81.00;;;;;;4986754;28;20022;-88
2021/09/23 04:36:32;;;;;;;2.58;2.38;;;13.40;81.00;;;;;;5005988;28;20027;-88
2021/09/23 04:38:58;;;;;;;3.45;2.83;;;13.50;81.10;;;;;;4972633;28;20030;-91
2021/09/23 04:41:24;;;;;;;4.00;2.85;;;13.50;81.20;;;;;;4983566;28;20034;-90
2021/09/23 04:43:50;;;;;;;3.45;2.47;;;13.50;81.20;;;;;;4970108;28;20041;-90
2021/09/23 04:46:24;;;;;;;2.65;2.40;;;13.50;81.20;;;;;;4989725;28;20054;-86
2021/09/23 04:48:55;;;;;;;3.08;2.67;;;13.40;81.20;;;;;;4973910;28;20030;-91
2021/09/23 04:51:24;;;;;;;3.63;2.65;;;13.50;81.30;;;;;;4974133;28;20485;-88
2021/09/23 04:53:50;;;;;;;2.97;2.25;;;13.50;81.30;;;;;;4972038;28;20034;-89
2021/09/23 04:56:16;;;;;;;2.90;2.53;;;13.50;81.30;;;;;;4973247;28;20057;-88
2021/09/23 04:58:42;;;;;;;3.53;2.60;;;13.50;81.40;;;;;;4982537;28;20476;-89
2021/09/23 05:01:08;;;;;;;3.90;2.72;;;13.50;81.40;;;;;;4969919;28;20124;-90
2021/09/23 05:03:34;;;;;;;3.03;2.28;;;13.50;81.40;;;;;;4987758;28;20401;-90
2021/09/23 05:06:00;;;;;;;3.15;2.80;;;13.50;81.40;;;;;;4970822;28;20030;-89
2021/09/23 05:08:26;;;;;;;3.58;2.75;;;13.50;81.40;;;;;;4987411;28;20501;-89
2021/09/23 05:10:52;;;;;;;3.28;2.67;;;13.50;81.50;;;;;;4978584;28;20038;-86
2021/09/23 05:13:18;;;;;;;4.35;3.08;;;13.50;81.50;;;;;;4989232;28;20061;-87
2021/09/23 05:15:46;;;;;;;4.22;2.92;;;13.50;81.50;;;;;;4986459;28;20042;-89
2021/09/23 05:18:13;;;;;;;4.85;3.08;;;13.50;81.60;;;;;;4993539;28;20069;-90
2021/09/23 05:20:39;;;;;;;4.03;2.97;;;13.60;81.70;;;;;;4996552;28;20563;-91
2021/09/23 05:23:06;;;;;;;3.30;2.60;;;13.60;81.60;;;;;;4987310;28;20035;-90
2021/09/23 05:25:33;;;;;;;4.45;3.00;;;13.60;81.60;;;;;;4991563;28;20035;-89
2021/09/23 05:27:59;;;;;;;3.88;3.05;;;13.60;81.60;;;;;;5017272;28;20026;-89
2021/09/23 05:30:26;;;;;;;4.85;3.20;;;13.60;81.70;;;;;;5000996;28;20038;-86
2021/09/23 05:32:53;;;;;;;9.75;5.32;;;13.60;81.70;;;;;;4982776;28;20058;-87
2021/09/23 05:35:19;;;;;;;9.05;4.78;;;13.60;82.90;;;;;;4982395;28;20073;-90
2021/09/23 05:37:46;;;;;;;8.15;5.10;;;13.70;86.10;;;;;;4990869;28;20069;-89
2021/09/23 05:40:13;;;;;;;8.50;4.60;;;13.80;86.80;;;;;;4985707;28;20069;-86
2021/09/23 05:42:40;;;;;;;8.63;4.97;;;13.80;87.10;;;;;;4994898;28;20037;-88
2021/09/23 05:45:08;;;;;;;6.35;4.50;;;13.80;86.80;;;;;;4987576;28;20031;-89
2021/09/23 05:47:35;;;;;;;7.30;4.22;;;13.90;86.50;;;;;;4996319;28;20398;-87
2021/09/23 05:50:02;;;;;;;6.30;4.00;;;13.90;86.10;;;;;;4988917;28;20065;-89
2021/09/23 05:52:28;;;;;;;7.22;4.50;;;13.90;86.00;;;;;;4986638;28;20034;-87
2021/09/23 05:54:53;;;;;;;7.80;4.05;;;13.90;85.90;;;;;;4988052;28;20068;-88
2021/09/23 05:57:32;;;;;;;6.45;4.30;;;13.90;85.80;;;;;;4988389;28;20137;-88
2021/09/23 05:59:59;;;;;;;9.55;4.50;;;14.00;85.70;;;;;;4969185;28;20030;-87
2021/09/23 06:02:24;;;;;;;16.30;4.60;;;13.90;85.60;;;;;;4985484;28;20045;-88
2021/09/23 06:04:50;;;;;;;6.50;4.05;;;14.00;85.60;;;;;;4978621;28;20026;-88
2021/09/23 06:07:17;;;;;;;8.73;4.45;;;14.00;85.60;;;;;;4969650;28;20054;-88
2021/09/23 06:09:43;;;;;;;6.15;4.25;;;14.00;85.80;;;;;;4984786;28;20066;-87
2021/09/23 06:12:09;;;;;;;5.35;4.10;;;14.00;85.80;;;;;;4985964;28;20040;-87
2021/09/23 06:14:35;;;;;;;6.53;4.75;;;14.00;85.70;;;;;;4988590;28;20068;-88
2021/09/23 06:17:01;;;;;;;5.07;4.10;;;14.00;85.70;;;;;;4984640;28;20034;-86
2021/09/23 06:19:27;;;;;;;6.22;4.40;;;14.10;85.70;;;;;;4985989;28;20061;-89
2021/09/23 06:21:53;;;;;;;5.03;3.92;;;14.10;85.70;;;;;;4998489;28;20114;-86
2021/09/23 06:24:19;;;;;;;6.43;4.13;;;14.00;85.70;;;;;;4998613;28;20038;-86
2021/09/23 06:26:45;;;;;;;6.03;4.13;;;14.10;85.80;;;;;;4994113;28;20031;-88
2021/09/23 06:29:11;;;;;;;3.85;3.45;;;14.10;85.80;;;;;;4971017;28;20057;-86
2021/09/23 06:31:37;;;;;;;5.20;3.90;;;14.10;85.80;;;;;;4986531;28;20054;-88
2021/09/23 06:34:03;;;;;;;7.28;4.20;;;14.10;85.80;;;;;;4984475;28;20042;-88
2021/09/23 06:36:33;;;;;;;6.10;4.68;;;14.10;85.70;;;;;;4971050;28;20498;-88
2021/09/23 06:38:59;;;;;;;6.00;4.40;;;14.20;85.70;;;;;;4981886;28;20034;-88
2021/09/23 06:41:25;;;;;;;6.43;4.88;;;14.20;85.60;;;;;;4985628;28;20485;-88
2021/09/23 06:43:51;;;;;;;6.32;4.15;;;14.20;85.70;;;;;;4984609;28;20030;-87
2021/09/23 06:46:20;;;;;;;6.05;4.63;;;14.20;85.50;;;;;;4986487;28;20034;-87
2021/09/23 06:48:47;;;;;;;6.53;4.28;;;14.20;85.50;;;;;;4986960;28;20460;-88
2021/09/23 06:51:14;;;;;;;4.80;4.10;;;14.20;85.50;;;;;;4986234;28;20075;-89
2021/09/23 06:53:40;;;;;;;6.30;4.20;;;14.20;85.70;;;;;;4987155;28;20121;-88
2021/09/23 06:56:06;;;;;;;5.05;4.28;;;14.20;85.60;;;;;;4998342;28;20080;-90
2021/09/23 06:58:32;;;;;;;5.38;3.97;;;14.20;85.50;;;;;;4985473;28;20058;-88
2021/09/23 07:01:16;;;;;;;5.07;4.00;;;14.30;85.60;;;;;;4985536;28;20045;-89
2021/09/23 07:04:05;;;;;;;4.10;3.50;;;14.30;85.50;;;;;;4977986;28;20066;-87
2021/09/23 07:07:00;;;;;;;4.35;3.45;;;14.30;85.50;;;;;;4942245;28;20438;-86
2021/09/23 07:09:34;;;;;;;4.57;3.88;;;14.30;85.50;;;;;;4987801;28;20035;-87
2021/09/23 07:12:03;;;;;;;7.32;3.65;;;14.30;85.50;;;;;;4985456;28;20405;-87
2021/09/23 07:14:29;;;;;;;6.35;3.67;;;14.30;85.60;;;;;;4985397;28;20026;-86
2021/09/23 07:16:55;;;;;;;8.20;3.35;;;14.30;85.50;;;;;;4970237;28;20085;-85
2021/09/23 07:19:21;;;;;;;4.22;3.83;;;14.30;85.50;;;;;;4987412;28;20390;-86
2021/09/23 07:21:48;;;;;;;5.90;4.15;;;14.40;85.50;;;;;;4996984;28;20030;-92
2021/09/23 07:24:14;;;;;;;5.78;3.75;;;14.40;85.60;;;;;;5005033;28;20065;-90
2021/09/23 07:26:40;;;;;;;5.50;3.72;;;14.40;85.70;;;;;;4976707;28;20452;-92
2021/09/23 07:29:07;;;;;;;4.85;3.55;;;14.40;85.50;;;;;;4988926;28;20058;-93
2021/09/23 07:31:33;;;;;;;5.15;3.50;;;14.40;85.50;;;;;;4984742;28;20140;-87
2021/09/23 07:33:59;;;;;;;5.90;3.78;;;14.40;85.50;;;;;;4984730;28;20401;-88
2021/09/23 07:36:25;;;;;;;5.60;3.65;;;14.40;85.40;;;;;;4985340;28;20133;-85
2021/09/23 07:38:52;;;;;;;5.40;3.40;;;14.40;85.30;;;;;;4984684;28;20458;-86
2021/09/23 07:41:18;;;;;;;7.22;3.88;;;14.40;85.30;;;;;;5001114;28;20121;-85
2021/09/23 07:43:44;;;;;;;7.13;3.65;;;14.40;85.30;;;;;;4984639;28;20179;-86
2021/09/23 07:46:10;;;;;;;8.90;4.78;;;14.40;85.30;;;;;;4985038;28;20081;-88
2021/09/23 07:48:36;;;;;;;5.65;4.40;;;14.50;85.30;;;;;;4965995;28;20123;-87
2021/09/23 07:51:02;;;;;;;5.80;3.80;;;14.40;85.30;;;;;;4985545;28;20033;-88
2021/09/23 07:53:30;;;;;;;5.80;4.45;;;14.40;85.30;;;;;;4984094;28;20117;-88
2021/09/23 07:55:56;;;;;;;4.18;3.08;;;14.50;85.50;;;;;;4985191;28;20081;-88
2021/09/23 07:58:22;;;;;;;6.00;3.90;;;14.50;85.30;;;;;;4968143;28;20069;-88
2021/09/23 08:00:49;;;;;;;5.75;4.10;;;14.50;86.10;;;;;;4989837;28;20526;-88
2021/09/23 08:03:15;;;;;;;14.02;4.22;;;14.50;85.80;;;;;;4985634;28;20565;-89
2021/09/23 08:05:41;;;;;;;7.55;4.43;;;14.50;86.00;;;;;;4968241;28;20069;-86
2021/09/23 08:08:09;;;;;;;4.00;2.80;;;14.60;86.50;;;;;;4970418;28;20033;-85
2021/09/23 08:10:38;;;;;;;6.18;3.72;;;14.60;87.10;;;;;;4991378;28;20068;-86
2021/09/23 08:13:06;;;;;;;6.80;4.50;;;14.60;86.60;;;;;;5018652;28;20090;-85
2021/09/23 08:15:33;;;;;;;5.22;3.72;;;14.70;86.20;;;;;;4998685;28;20038;-86
2021/09/23 08:18:12;;;;;;;6.57;3.75;;;14.70;86.50;;;;;;4978023;28;20129;-86
2021/09/23 08:21:04;;;;;;;8.70;3.72;;;14.70;87.30;;;;;;4972310;28;20039;-85
2021/09/23 08:23:30;;;;;;;7.15;3.90;;;14.80;87.80;;;;;;4956939;28;20030;-87
2021/09/23 08:25:57;;;;;;;5.72;3.67;;;14.80;88.20;;;;;;4964121;28;20136;-85
2021/09/23 08:28:26;;;;;;;4.10;3.45;;;14.80;88.30;;;;;;4985266;28;20031;-85
2021/09/23 08:30:53;;;;;;;10.98;4.35;;;14.80;88.40;;;;;;5004708;28;20030;-85
2021/09/23 08:33:19;;;;;;;5.85;3.50;;;14.90;88.60;;;;;;4988877;28;20034;-86
2021/09/23 08:35:46;;;;;;;5.22;3.75;;;14.90;88.60;;;;;;4989290;28;20453;-87
2021/09/23 08:38:12;;;;;;;4.85;3.97;;;15.00;88.70;;;;;;4977101;28;20031;-87
2021/09/23 08:40:39;;;;;;;6.88;3.60;;;15.00;88.70;;;;;;4992113;28;20125;-87
2021/09/23 08:43:05;;;;;;;5.97;3.47;;;15.00;88.70;;;;;;4993668;28;20133;-87
2021/09/23 08:45:32;;;;;;;7.07;3.72;;;15.10;88.60;;;;;;4991275;28;20125;-89
2021/09/23 08:47:59;;;;;;;4.65;3.20;;;15.10;88.60;;;;;;4985965;28;20753;-86
2021/09/23 08:50:27;;;;;;;5.75;3.78;;;15.20;88.50;;;;;;4966523;28;20038;-86
2021/09/23 08:52:54;;;;;;;7.55;3.83;;;15.30;87.50;;;;;;4967525;28;20073;-88
2021/09/23 08:55:25;;;;;;;7.60;4.53;;;15.30;86.90;;;;;;4986009;28;20153;-86
2021/09/23 08:57:53;;;;;;;8.43;5.18;;;15.30;86.60;;;;;;4988422;28;20034;-87
2021/09/23 09:00:21;;;;;;;7.72;4.90;;;15.30;86.40;;;;;;4987574;28;20038;-87
2021/09/23 09:03:13;;;;;;;8.20;5.18;;;15.40;86.20;;;;;;4979434;28;20018;-89
2021/09/23 09:06:08;;;;;;;5.65;4.82;;;15.40;85.90;;;;;;4984369;28;20061;-91
2021/09/23 09:08:53;;;;;;;7.65;4.93;;;15.40;85.60;;;;;;5013775;28;20084;-90
2021/09/23 09:11:23;;;;;;;8.48;4.80;;;15.40;85.40;;;;;;4997630;28;20102;-90
2021/09/23 09:13:52;;;;;;;8.25;5.20;;;15.40;85.30;;;;;;4988670;28;20038;-90
2021/09/23 09:16:23;;;;;;;7.57;5.10;;;15.40;85.20;;;;;;5004398;28;20045;-86
2021/09/23 09:18:53;;;;;;;7.15;4.97;;;15.40;85.80;;;;;;5003575;28;20089;-86
2021/09/23 09:21:22;;;;;;;6.20;4.82;;;15.40;85.00;;;;;;4964864;28;20065;-89
2021/09/23 09:23:55;;;;;;;8.85;5.43;;;15.40;85.00;;;;;;4987540;28;20122;-88
2021/09/23 09:26:26;;;;;;;7.78;5.53;;;15.40;84.90;;;;;;4988966;28;20034;-87
2021/09/23 09:28:58;;;;;;;7.60;5.18;;;15.40;84.90;;;;;;4967886;28;20035;-87
2021/09/23 09:31:26;;;;;;;8.82;5.55;;;15.40;84.90;;;;;;4988152;28;20077;-86
2021/09/23 09:33:54;;;;;;;8.00;5.13;;;15.40;85.40;;;;;;4986610;28;20043;-87
2021/09/23 09:36:29;;;;;;;7.68;5.95;;;15.40;84.90;;;;;;4985968;28;20053;-86
2021/09/23 09:39:18;;;;;;;10.50;5.40;;;15.40;84.80;;;;;;4987292;28;20064;-87
2021/09/23 09:41:50;;;;;;;9.82;5.60;;;15.40;84.80;;;;;;4966927;28;20045;-87
2021/09/23 09:44:18;;;;;;;6.70;4.72;;;15.40;84.80;;;;;;4984866;28;20034;-87
2021/09/23 09:46:53;;;;;;;9.90;6.45;;;15.40;84.80;;;;;;4985788;28;20129;-87
2021/09/23 09:49:23;;;;;;;14.30;5.68;;;15.40;84.90;;;;;;4987823;28;20153;-89
2021/09/23 09:51:56;;;;;;;6.80;5.20;;;15.30;84.90;;;;;;4988224;28;20489;-87
2021/09/23 09:54:24;;;;;;;8.57;5.60;;;15.40;84.90;;;;;;4995098;28;20129;-87
2021/09/23 09:57:03;;;;;;;7.47;5.75;;;15.40;84.90;;;;;;5004307;28;20030;-86
2021/09/23 09:59:33;;;;;;;7.68;5.55;;;15.40;85.00;;;;;;4988232;28;20033;-84
2021/09/23 10:01:59;;;;;;;6.72;5.25;;;15.40;85.00;;;;;;4987441;28;20030;-87
2021/09/23 10:04:29;;;;;;;8.52;4.93;;;15.40;85.00;;;;;;4995277;28;20034;-85
2021/09/23 10:07:02;;;;;;;4.38;3.97;;;15.30;85.00;;;;;;4995043;28;20053;-86
2021/09/23 10:09:36;;;;;;;6.03;4.10;;;15.40;85.00;;;;;;5007566;28;20489;-88
2021/09/23 10:12:05;;;;;;;4.78;4.07;;;15.40;85.20;;;;;;5004084;28;20038;-87
2021/09/23 10:14:34;;;;;;;4.15;3.72;;;15.40;85.20;;;;;;4970380;28;20504;-88
2021/09/23 10:17:03;;;;;;;7.97;4.07;;;15.40;85.20;;;;;;4987320;28;20026;-87
2021/09/23 10:19:31;;;;;;;5.40;3.25;;;15.40;85.60;;;;;;4986516;28;20126;-88
2021/09/23 10:21:57;;;;;;;4.60;3.20;;;15.40;85.50;;;;;;4987441;28;20133;-86
2021/09/23 10:24:24;;;;;;;4.22;3.00;;;15.40;85.50;;;;;;4996254;28;20117;-87
2021/09/23 10:26:52;;;;;;;6.32;3.42;;;15.40;85.60;;;;;;4971461;28;20100;-87
2021/09/23 10:29:18;;;;;;;4.15;3.13;;;15.40;85.70;;;;;;4987112;28;20512;-85
2021/09/23 10:31:45;;;;;;;4.60;3.15;;;15.40;85.80;;;;;;5003970;28;20039;-85
2021/09/23 10:34:13;;;;;;;3.97;3.05;;;15.40;85.80;;;;;;5002774;28;20089;-86
2021/09/23 10:36:41;;;;;;;3.30;3.00;;;15.40;85.90;;;;;;4987681;28;20054;-86
2021/09/23 10:39:10;;;;;;;6.00;3.28;;;15.50;85.90;;;;;;4985692;28;20038;-87
2021/09/23 10:41:39;;;;;;;4.88;2.72;;;15.50;85.90;;;;;;4987239;28;20183;-85
2021/09/23 10:44:06;;;;;;;6.25;3.78;;;15.50;86.00;;;;;;4984647;28;20057;-85
2021/09/23 10:46:34;;;;;;;4.38;3.30;;;15.50;86.60;;;;;;4987413;28;20031;-85
2021/09/23 10:49:03;;;;;;;7.50;3.72;;;15.40;88.00;;;;;;4970502;28;20108;-85
2021/09/23 10:51:32;;;;;;;4.72;3.22;;;15.50;89.20;;;;;;4986358;28;20069;-85
2021/09/23 10:54:07;;;;;;;5.93;4.10;;;15.50;89.90;;;;;;4983896;28;20040;-85
2021/09/23 10:56:34;;;;;;;5.82;3.50;;;15.60;90.20;;;;;;4983554;28;20571;-86
2021/09/23 10:59:02;;;;;;;3.90;3.50;;;15.60;90.30;;;;;;4971907;28;20066;-84
2021/09/23 11:01:35;;;;;;;7.70;3.90;;;15.60;90.50;;;;;;4984214;28;20038;-85
2021/09/23 11:04:02;;;;;;;5.70;3.28;;;15.60;90.60;;;;;;4988083;28;20034;-85
2021/09/23 11:06:39;;;;;;;4.32;3.53;;;15.70;90.70;;;;;;4985483;28;20034;-84
2021/09/23 11:09:35;;;;;;;4.90;3.90;;;15.70;90.70;;;;;;4986954;28;20117;-85
2021/09/23 11:12:08;;;;;;;4.88;3.28;;;15.80;90.90;;;;;;4967051;28;20073;-85
2021/09/23 11:14:48;;;;;;;4.95;3.30;;;15.80;90.80;;;;;;4971948;28;20034;-85
2021/09/23 11:17:17;;;;;;;4.97;3.42;;;15.90;90.90;;;;;;4969118;28;20061;-85
2021/09/23 11:19:45;;;;;;;7.90;3.80;;;15.90;90.90;;;;;;4985078;28;20125;-85
2021/09/23 11:22:13;;;;;;;5.13;3.42;;;15.90;90.90;;;;;;4970281;28;20038;-85
2021/09/23 11:24:41;;;;;;;4.40;3.85;;;15.90;90.90;;;;;;5001965;28;20553;-85
2021/09/23 11:27:08;;;;;;;4.50;3.38;;;16.00;90.90;;;;;;4969344;28;20041;-85
2021/09/23 11:29:42;;;;;;;4.47;3.33;;;16.00;90.90;;;;;;4983834;28;20836;-84
2021/09/23 11:32:11;;;;;;;4.85;3.17;;;16.00;90.80;;;;;;5003032;28;20072;-85
2021/09/23 11:34:39;;;;;;;4.07;3.67;;;16.00;90.80;;;;;;4970325;28;20042;-84
2021/09/23 11:37:09;;;;;;;4.38;3.72;;;16.10;90.80;;;;;;4985309;28;20034;-89
2021/09/23 11:39:48;;;;;;;5.78;4.43;;;16.10;90.40;;;;;;4979771;28;20058;-89
2021/09/23 11:42:19;;;;;;;6.28;5.50;;;16.20;90.10;;;;;;4978253;28;20056;-89
2021/09/23 11:44:46;;;;;;;6.57;5.50;;;16.20;89.60;;;;;;4981566;28;20034;-89
2021/09/23 11:47:13;;;;;;;9.80;5.90;;;16.20;89.00;;;;;;4970132;28;20449;-90
2021/09/23 11:49:40;;;;;;;6.97;5.97;;;16.10;88.30;;;;;;4978302;28;20033;-90
2021/09/23 11:52:07;;;;;;;7.93;6.13;;;16.20;87.90;;;;;;4987695;28;20450;-90
2021/09/23 11:54:36;;;;;;;7.72;5.93;;;16.20;87.50;;;;;;4990735;28;20046;-87
2021/09/23 11:57:05;;;;;;;8.27;6.43;;;16.10;87.10;;;;;;5012036;28;20060;-88
2021/09/23 11:59:33;;;;;;;8.20;6.55;;;16.20;86.90;;;;;;4993114;28;20089;-89
2021/09/23 12:02:05;;;;;;;8.30;6.80;;;16.20;86.60;;;;;;4974527;28;20027;-89
2021/09/23 12:04:33;;;;;;;8.35;7.10;;;16.20;86.40;;;;;;4990247;28;20505;-88
2021/09/23 12:07:02;;;;;;;6.95;5.78;;;16.20;86.20;;;;;;4990524;28;20029;-90
2021/09/23 12:09:28;;;;;;;4.35;3.95;;;16.10;86.70;;;;;;5001050;28;20049;-92
2021/09/23 12:11:55;;;;;;;6.68;4.65;;;16.10;87.20;;;;;;4993509;28;20030;-88
2021/09/23 12:14:23;;;;;;;7.28;4.40;;;16.10;88.40;;;;;;4999037;28;20030;-91
2021/09/23 12:17:02;;;;;;;5.35;4.45;;;16.10;89.20;;;;;;4998760;28;20061;-91
2021/09/23 12:19:31;;;;;;;6.55;4.75;;;16.10;89.70;;;;;;4996440;28;20039;-89
2021/09/23 12:21:58;;;;;;;6.85;4.85;;;16.10;90.00;;;;;;4996779;28;20480;-91
2021/09/23 12:24:34;;;;;;;7.97;5.40;;;16.20;90.10;;;;;;4996501;28;20027;-91
2021/09/23 12:27:02;;;;;;;9.38;5.13;;;16.20;90.20;;;;;;5000371;28;20486;-91
2021/09/23 12:29:28;;;;;;;7.68;5.45;;;16.30;90.20;;;;;;4996941;28;20057;-91
2021/09/23 12:32:17;;;;;;;8.98;6.05;;;16.30;90.30;;;;;;4984879;28;20041;-93
2021/09/23 12:34:47;;;;;;;7.72;5.78;;;16.30;90.30;;;;;;4996464;28;20049;-89
2021/09/23 12:37:15;;;;;;;8.38;7.47;;;16.40;90.40;;;;;;5008010;28;20134;-86
2021/09/23 12:40:04;;;;;;;13.32;9.27;;;16.40;90.30;;;;;;4989664;28;20521;-86
2021/09/23 12:42:35;;;;;;;11.98;8.73;;;16.40;89.60;;;;;;4988668;28;20491;-88
2021/09/23 12:45:06;;;;;;;11.93;8.80;;;16.40;87.90;;;;;;4973804;28;20035;-88
2021/09/23 12:47:49;;;;;;;12.45;9.23;;;16.40;86.70;;;;;;4990618;28;20382;-88
2021/09/23 12:50:22;;;;;;;11.75;9.25;;;16.40;85.90;;;;;;4985730;28;20096;-87
2021/09/23 12:52:51;;;;;;;10.63;8.48;;;16.40;85.50;;;;;;4973145;28;20038;-86